Time;durP1;ratioP1;P1;durP2;ratioP2;P2;SDS_P1;SDS_P2;PMS_P1;PMS_P2;Temp;Humidity;BMP_temperature;BMP_pressure;BME280_temperature;BME280_humidity;BME280_pressure;Samples;Min_cycle;Max_cycle;Signal;HPM_P1;HPM_P2
2022/02/10 00:13:21;;;;;;;40.05;20.25;;;;;;;6.88;97.66;102209.28;5075383;28;20113;-73
2022/02/10 00:25:04;;;;;;;37.22;19.92;;;;;;;6.86;97.00;102195.28;5045448;28;20393;-74
2022/02/10 00:35:40;;;;;;;36.70;20.10;;;;;;;6.76;97.62;102178.19;5074851;28;20047;-73
2022/02/10 00:38:06;;;;;;;36.88;20.00;;;;;;;6.70;98.02;102171.44;5075138;28;20090;-73
2022/02/10 00:40:37;;;;;;;38.60;19.00;;;;;;;6.64;98.56;102168.25;5074439;28;20028;-74
2022/02/10 00:43:05;;;;;;;31.42;18.73;;;;;;;6.57;99.06;102167.75;5074911;28;20029;-73
2022/02/10 00:45:32;;;;;;;35.45;18.23;;;;;;;6.56;99.41;102165.19;5074176;28;20054;-73
2022/02/10 00:48:06;;;;;;;27.90;16.55;;;;;;;6.50;99.54;102164.53;5075220;28;20041;-73
2022/02/10 00:50:33;;;;;;;37.28;19.05;;;;;;;6.46;99.74;102170.06;5074593;28;20094;-73
2022/02/10 00:55:29;;;;;;;32.50;18.33;;;;;;;6.39;100.00;102164.25;5074029;28;20072;-75
2022/02/10 00:57:55;;;;;;;29.88;16.52;;;;;;;6.36;100.00;102159.13;5074374;28;20039;-73
2022/02/10 01:13:43;;;;;;;35.55;17.55;;;;;;;6.26;100.00;102139.41;5074328;28;20123;-73
2022/02/10 01:24:37;;;;;;;35.78;19.23;;;;;;;6.23;100.00;102124.53;5073711;28;20542;-72
2022/02/10 01:29:48;;;;;;;43.25;20.20;;;;;;;6.20;100.00;102121.22;5074379;28;20051;-73
2022/02/10 01:32:15;;;;;;;49.08;23.38;;;;;;;6.18;100.00;102108.09;5073600;28;20032;-73
2022/02/10 01:34:49;;;;;;;67.20;27.63;;;;;;;6.14;100.00;102107.38;5073498;28;20488;-74
2022/02/10 01:37:16;;;;;;;62.50;27.90;;;;;;;6.12;100.00;102106.59;5073496;28;20024;-73
2022/02/10 01:39:55;;;;;;;61.53;27.45;;;;;;;6.12;100.00;102100.44;5072149;28;20130;-73
2022/02/10 02:03:51;;;;;;;67.63;27.38;;;;;;;5.99;100.00;102066.72;5073524;28;20373;-72
2022/02/10 02:06:24;;;;;;;70.63;28.27;;;;;;;5.97;100.00;102063.31;5073109;28;20035;-71
2022/02/10 02:08:50;;;;;;;70.65;27.52;;;;;;;5.97;100.00;102065.09;5073105;28;20032;-72
2022/02/10 02:11:15;;;;;;;76.05;29.13;;;;;;;5.94;100.00;102055.53;5071699;28;20461;-71
2022/02/10 02:13:41;;;;;;;76.05;28.52;;;;;;;5.95;100.00;102059.84;5071635;28;20108;-72
2022/02/10 02:16:07;;;;;;;81.25;29.23;;;;;;;5.93;100.00;102051.16;5055548;28;20063;-72
2022/02/10 02:18:32;;;;;;;74.00;28.67;;;;;;;5.94;100.00;102060.81;5072906;28;20108;-72
2022/02/10 02:20:59;;;;;;;74.03;29.13;;;;;;;5.94;100.00;102055.53;5071823;28;20040;-72
2022/02/10 02:23:27;;;;;;;83.65;31.33;;;;;;;5.94;100.00;102062.59;5072702;28;20044;-72
2022/02/10 02:26:00;;;;;;;83.97;29.80;;;;;;;5.92;100.00;102057.38;5072525;28;20052;-72
2022/02/10 02:28:26;;;;;;;96.30;31.88;;;;;;;5.93;100.00;102052.97;5072737;28;20457;-72
2022/02/10 02:30:57;;;;;;;82.75;29.52;;;;;;;5.94;100.00;102052.00;5072978;28;20031;-72
2022/02/10 03:06:00;;;;;;;83.85;28.45;;;;;;;5.99;100.00;102005.13;5052481;28;20048;-71
2022/02/10 03:08:26;;;;;;;86.05;29.60;;;;;;;5.98;100.00;102009.53;5076734;28;20037;-71
2022/02/10 03:13:23;;;;;;;91.90;30.23;;;;;;;5.96;100.00;101998.16;5076540;28;20045;-71
2022/02/10 03:16:14;;;;;;;92.53;29.10;;;;;;;5.99;100.00;101998.03;5076354;28;20033;-72
2022/02/10 03:18:48;;;;;;;78.57;27.23;;;;;;;6.00;100.00;101988.31;5076189;28;20049;-71
2022/02/10 03:21:49;;;;;;;71.10;25.48;;;;;;;6.01;100.00;101995.31;5076515;28;20032;-71
2022/02/10 04:13:37;;;;;;;19.63;8.85;;;;;;;5.71;100.00;102019.72;5075630;28;20066;-71
2022/02/10 04:28:57;;;;;;;7.03;3.85;;;;;;;5.35;100.00;102015.38;5073642;28;20052;-71
2022/02/10 04:31:53;;;;;;;9.32;3.70;;;;;;;5.29;100.00;102008.59;5074525;28;20491;-71
2022/02/10 04:53:22;;;;;;;4.55;3.50;;;;;;;5.16;100.00;101999.59;5074733;28;20122;-72
2022/02/10 04:58:43;;;;;;;5.13;3.58;;;;;;;5.09;100.00;101995.53;5074696;28;20052;-71
2022/02/10 05:12:13;;;;;;;8.18;3.90;;;;;;;5.08;100.00;102007.88;5074156;28;20040;-71
2022/02/10 05:33:06;;;;;;;12.25;6.22;;;;;;;4.99;100.00;102010.97;5073648;28;20076;-71
2022/02/10 05:35:54;;;;;;;9.32;6.20;;;;;;;5.00;100.00;102017.09;5073966;28;20381;-70
2022/02/10 05:38:29;;;;;;;16.15;5.68;;;;;;;5.00;100.00;102011.81;5073056;28;20079;-71
2022/02/10 05:43:57;;;;;;;7.85;4.25;;;;;;;4.94;100.00;102010.31;5073463;28;20036;-70
2022/02/10 05:46:41;;;;;;;13.73;4.22;;;;;;;4.88;100.00;102018.53;5072567;28;20075;-70
2022/02/10 05:55:27;;;;;;;10.93;4.72;;;;;;;4.75;100.00;102023.56;5073600;28;20044;-70
2022/02/10 06:54:00;;;;;;;9.05;3.30;;;;;;;4.22;100.00;102047.03;5072174;28;20056;-70
2022/02/10 07:09:56;;;;;;;14.95;4.47;;;;;;;4.15;100.00;102065.78;5071593;28;20044;-70
2022/02/10 07:12:51;;;;;;;13.93;4.45;;;;;;;4.14;100.00;102066.72;5072186;28;20147;-70
2022/02/10 07:51:11;;;;;;;19.55;6.93;;;;;;;4.37;100.00;102089.41;5075749;28;20040;-71
2022/02/10 07:56:27;;;;;;;13.27;6.43;;;;;;;4.46;100.00;102102.19;5075689;28;20051;-70
2022/02/10 08:55:54;;;;;;;9.13;3.05;;;;;;;5.34;100.00;102140.34;5072563;28;20052;-70
2022/02/10 09:03:38;;;;;;;11.40;3.03;;;;;;;5.61;100.00;102142.56;5073447;28;20111;-73
2022/02/10 09:06:36;;;;;;;7.22;2.80;;;;;;;5.75;100.00;102145.41;5073365;28;20032;-71
2022/02/10 09:58:31;;;;;;;11.75;3.05;;;;;;;6.48;92.38;102177.00;5071856;28;20186;-72
2022/02/10 10:01:47;;;;;;;6.55;3.20;;;;;;;6.52;93.15;102191.78;5072945;28;20028;-72
2022/02/10 10:04:22;;;;;;;7.93;3.15;;;;;;;6.57;93.49;102193.31;5069879;28;20511;-72
2022/02/10 10:23:41;;;;;;;10.27;3.00;;;;;;;6.79;89.50;102211.56;5072607;28;20448;-74
2022/02/10 11:38:40;;;;;;;;;;;;;;;7.38;77.74;102214.56;5075716;28;20097;-74
2022/02/10 12:01:56;;;;;;;14.15;2.78;;;;;;;7.35;76.69;102228.00;5074555;28;20097;-75
2022/02/10 14:23:16;;;;;;;12.77;2.05;;;;;;;6.65;68.43;102202.56;5071676;28;20128;-74
2022/02/10 14:26:47;;;;;;;9.40;2.08;;;;;;;6.48;68.68;102205.25;5071657;28;20032;-75
2022/02/10 14:28:38;;;;;;;12.10;2.10;;;;;;;6.57;69.41;102201.25;5057567;28;20060;-73
2022/02/10 14:31:04;;;;;;;12.35;2.08;;;;;;;6.57;69.70;102211.81;5071565;28;20044;-75
2022/02/10 14:33:34;;;;;;;5.93;1.63;;;;;;;6.58;69.71;102208.25;5072042;28;20112;-74
2022/02/10 14:38:44;;;;;;;10.30;2.15;;;;;;;6.52;69.16;102214.72;5071993;28;20037;-74
2022/02/10 16:15:51;;;;;;;15.30;1.83;;;;;;;4.99;72.04;102203.53;5074411;28;20059;-74
2022/02/10 16:17:56;;;;;;;12.68;1.90;;;;;;;4.95;72.48;102205.44;5074127;28;20037;-75
2022/02/10 16:20:28;;;;;;;13.45;1.80;;;;;;;4.94;71.92;102210.78;5074454;28;20032;-74
2022/02/10 16:25:35;;;;;;;9.88;1.75;;;;;;;4.88;72.98;102198.75;5074130;28;20121;-75
2022/02/10 16:28:11;;;;;;;7.97;1.70;;;;;;;4.85;73.00;102201.53;5073950;28;20050;-75
2022/02/10 16:30:38;;;;;;;9.90;1.90;;;;;;;4.81;72.46;102197.31;5073152;28;20043;-74
2022/02/10 16:33:04;;;;;;;12.10;1.85;;;;;;;4.77;72.96;102201.00;5074446;28;20037;-73
2022/02/10 16:35:30;;;;;;;9.10;1.50;;;;;;;4.70;73.24;102196.91;5073849;28;20028;-73
2022/02/10 16:37:56;;;;;;;6.55;1.30;;;;;;;4.65;73.21;102201.56;5073678;28;20032;-74
2022/02/10 16:40:24;;;;;;;10.45;2.03;;;;;;;4.62;72.59;102201.69;5073708;28;20033;-75
2022/02/10 16:42:51;;;;;;;7.57;1.65;;;;;;;4.59;72.92;102198.25;5073750;28;20139;-74
2022/02/10 16:45:17;;;;;;;8.80;2.00;;;;;;;4.54;72.69;102205.50;5074558;28;20056;-75
2022/02/10 16:47:43;;;;;;;12.40;1.90;;;;;;;4.51;72.58;102199.50;5073789;28;20032;-73
2022/02/10 16:50:09;;;;;;;13.57;1.75;;;;;;;4.43;73.09;102199.81;5073808;28;20053;-74
2022/02/10 16:52:39;;;;;;;5.95;1.63;;;;;;;4.41;72.57;102210.44;5073978;28;20037;-73
2022/02/10 16:55:24;;;;;;;15.50;2.33;;;;;;;4.43;71.82;102207.72;5073903;28;20067;-74
2022/02/10 17:03:26;;;;;;;11.23;2.00;;;;;;;4.39;71.29;102217.56;5073759;28;20080;-73
2022/02/10 17:20:10;;;;;;;13.25;2.03;;;;;;;4.36;71.83;102216.81;5018617;28;20045;-74
2022/02/10 17:25:10;;;;;;;10.98;2.83;;;;;;;4.36;72.26;102216.81;5072939;28;20453;-77
2022/02/10 17:25:26;;;;;;;8.30;1.90;;;;;;;4.34;73.09;102223.94;5072821;28;20064;-74
2022/02/10 17:27:59;;;;;;;9.95;1.92;;;;;;;4.32;72.38;102225.81;5073334;28;20056;-74
2022/02/10 17:33:22;;;;;;;9.55;1.70;;;;;;;4.27;73.08;102233.91;5072906;28;20044;-74
2022/02/10 17:41:47;;;;;;;10.43;1.63;;;;;;;4.26;72.08;102232.19;5065013;28;20162;-76
2022/02/10 17:44:31;;;;;;;7.50;2.00;;;;;;;4.25;71.97;102230.47;5065485;28;20203;-74
2022/02/10 17:52:20;;;;;;;14.07;2.30;;;;;;;4.27;72.50;102231.25;5065727;28;20072;-73
2022/02/10 17:54:45;;;;;;;9.07;2.10;;;;;;;4.24;73.32;102236.66;5064374;28;20136;-73
2022/02/10 17:57:12;;;;;;;8.65;1.98;;;;;;;4.26;73.06;102239.25;5065451;28;20078;-76
2022/02/10 17:59:37;;;;;;;11.52;2.25;;;;;;;4.29;73.34;102242.59;5064599;28;20025;-74
2022/02/10 18:02:03;;;;;;;13.35;2.17;;;;;;;4.29;73.60;102247.00;5065064;28;20449;-74
2022/02/10 18:04:29;;;;;;;8.18;2.33;;;;;;;4.32;74.38;102241.63;5064594;28;20036;-76
2022/02/10 18:06:56;;;;;;;9.00;2.10;;;;;;;4.36;74.16;102241.41;5064850;28;20045;-75
2022/02/10 18:14:31;;;;;;;8.88;2.28;;;;;;;4.45;74.80;102237.53;5064849;28;20052;-74
2022/02/10 18:17:10;;;;;;;8.77;2.42;;;;;;;4.52;75.33;102238.13;5064752;28;20733;-74
2022/02/10 18:20:02;;;;;;;17.02;2.53;;;;;;;4.53;75.09;102235.41;5064347;28;20366;-75
2022/02/10 18:22:52;;;;;;;4.78;1.80;;;;;;;4.58;74.78;102235.22;5064447;28;20056;-74
2022/02/10 18:30:23;;;;;;;;;;;;;;;4.63;75.72;102242.94;5064763;28;20075;-74
2022/02/10 19:06:10;;;;;;;8.68;2.22;;;;;;;4.32;77.11;102260.06;5049849;28;20087;-77
2022/02/10 19:11:19;;;;;;;11.27;1.98;;;;;;;4.33;76.84;102259.13;5050478;28;20558;-76
2022/02/10 19:13:47;;;;;;;12.40;2.90;;;;;;;4.28;77.01;102258.47;5050077;28;20171;-75
2022/02/10 19:16:12;;;;;;;6.57;2.20;;;;;;;4.24;76.93;102244.56;5050275;28;20174;-76
2022/02/10 19:18:37;;;;;;;13.27;2.60;;;;;;;4.22;77.06;102239.38;5032008;28;20165;-76
2022/02/10 19:21:03;;;;;;;9.00;2.08;;;;;;;4.20;77.14;102241.19;5050699;28;20044;-76
2022/02/10 19:23:28;;;;;;;10.85;2.45;;;;;;;4.15;77.55;102237.03;5050654;28;20428;-76
2022/02/10 19:25:53;;;;;;;8.73;2.20;;;;;;;4.14;78.11;102249.34;5049284;28;20116;-76
2022/02/10 19:28:19;;;;;;;13.50;2.45;;;;;;;4.18;77.82;102253.59;5050351;28;20040;-75
2022/02/10 19:30:45;;;;;;;6.70;2.25;;;;;;;4.16;77.90;102244.84;5047670;28;20060;-75
2022/02/10 19:33:12;;;;;;;8.40;2.13;;;;;;;4.14;78.22;102251.13;5050188;28;20178;-77
2022/02/10 19:35:44;;;;;;;8.65;2.30;;;;;;;4.16;78.09;102251.91;5049914;28;20067;-75
2022/02/10 19:38:11;;;;;;;8.38;2.50;;;;;;;4.18;77.49;102239.53;5049497;28;20080;-75
2022/02/10 19:40:39;;;;;;;7.82;2.22;;;;;;;4.24;77.08;102245.41;5050224;28;20480;-75
2022/02/10 19:43:05;;;;;;;9.38;2.20;;;;;;;4.24;76.82;102239.31;5049338;28;20079;-75
2022/02/10 19:45:31;;;;;;;12.75;1.90;;;;;;;4.22;76.15;102252.53;5050074;28;20033;-77
2022/02/10 19:47:57;;;;;;;16.35;2.72;;;;;;;4.25;75.12;102248.91;5049263;28;20036;-75
2022/02/10 19:50:30;;;;;;;5.88;2.03;;;;;;;4.28;74.59;102253.19;5049540;28;20033;-76
2022/02/10 19:53:00;;;;;;;14.07;2.10;;;;;;;4.30;73.99;102253.97;5048893;28;20369;-77
2022/02/10 19:55:27;;;;;;;9.73;2.45;;;;;;;4.29;73.97;102249.66;5049374;28;20037;-76
2022/02/10 19:57:57;;;;;;;8.88;2.05;;;;;;;4.31;73.32;102259.19;5049109;28;20489;-74
2022/02/10 20:00:27;;;;;;;9.07;2.28;;;;;;;4.35;72.24;102252.03;5048646;28;20189;-75
2022/02/10 20:02:54;;;;;;;8.63;2.22;;;;;;;4.40;71.16;102248.28;5049042;28;20033;-75
2022/02/10 20:05:25;;;;;;;8.27;2.20;;;;;;;4.47;70.64;102248.03;5048917;28;20033;-74
2022/02/10 20:07:54;;;;;;;7.65;2.10;;;;;;;4.52;70.17;102253.94;5049183;28;20049;-75
2022/02/10 20:10:20;;;;;;;10.02;2.70;;;;;;;4.55;70.32;102257.31;5049505;28;20037;-75
2022/02/10 20:12:46;;;;;;;7.85;2.00;;;;;;;4.57;70.84;102259.88;5048760;28;20041;-75
2022/02/10 20:15:13;;;;;;;10.73;2.70;;;;;;;4.57;70.34;102252.81;5049085;28;20094;-76
2022/02/10 20:17:40;;;;;;;6.32;2.10;;;;;;;4.51;71.08;102262.75;5048756;28;20033;-75
2022/02/10 20:20:06;;;;;;;13.98;2.70;;;;;;;4.44;71.57;102258.69;5049040;28;20033;-75
2022/02/10 20:22:36;;;;;;;10.60;2.45;;;;;;;4.40;72.28;102256.19;5047827;28;20033;-74
2022/02/10 20:25:06;;;;;;;18.23;2.72;;;;;;;4.40;72.53;102264.09;5048434;28;20041;-76
2022/02/10 20:27:32;;;;;;;14.73;2.05;;;;;;;4.44;71.48;102269.22;5049128;28;20036;-75
2022/02/10 20:29:57;;;;;;;9.60;1.85;;;;;;;4.41;71.54;102265.78;5048457;28;20041;-77
2022/02/10 20:32:23;;;;;;;10.20;2.38;;;;;;;4.40;71.31;102268.47;5049138;28;20457;-78
2022/02/10 20:34:48;;;;;;;8.57;1.80;;;;;;;4.37;71.65;102263.34;5047001;28;20151;-76
2022/02/10 20:37:14;;;;;;;8.35;1.70;;;;;;;4.33;72.03;102272.28;5047884;28;20137;-76
2022/02/10 20:39:40;;;;;;;14.52;2.00;;;;;;;4.30;72.03;102268.03;5049632;28;20079;-77
2022/02/10 20:42:11;;;;;;;8.65;2.28;;;;;;;4.26;72.14;102270.84;5048198;28;20036;-77
2022/02/10 20:44:37;;;;;;;9.80;2.22;;;;;;;4.17;72.58;102265.03;5048882;28;20453;-76
2022/02/10 20:47:03;;;;;;;9.32;2.00;;;;;;;4.10;73.05;102271.47;5048425;28;20078;-76
2022/02/10 20:49:29;;;;;;;13.80;2.42;;;;;;;4.13;72.53;102271.34;5048695;28;20033;-75
2022/02/10 20:51:56;;;;;;;13.40;2.00;;;;;;;4.08;73.07;102273.31;5048205;28;20441;-75
2022/02/10 20:54:23;;;;;;;14.25;2.38;;;;;;;4.05;72.30;102271.66;5030679;28;20052;-76
2022/02/10 20:56:49;;;;;;;12.45;2.30;;;;;;;4.06;71.52;102267.22;5046822;28;20456;-77
2022/02/10 20:59:35;;;;;;;10.63;1.92;;;;;;;4.04;71.26;102269.06;5048462;28;20043;-76
2022/02/10 21:02:13;;;;;;;15.60;2.45;;;;;;;3.98;71.35;102269.31;5047642;28;20041;-76
2022/02/10 21:04:55;;;;;;;15.90;2.03;;;;;;;3.93;71.04;102266.88;5048544;28;20124;-76
2022/02/10 21:07:39;;;;;;;14.55;2.22;;;;;;;3.93;71.09;102266.03;5048758;28;20674;-76
2022/02/10 21:10:06;;;;;;;8.85;2.10;;;;;;;3.87;71.52;102262.72;5047789;28;20130;-76
2022/02/10 21:12:36;;;;;;;12.15;2.10;;;;;;;3.85;71.20;102254.03;5048320;28;20041;-75
2022/02/10 21:15:05;;;;;;;15.73;2.50;;;;;;;3.82;71.78;102255.91;5047780;28;20041;-74
2022/02/10 21:17:31;;;;;;;12.13;2.17;;;;;;;3.87;71.55;102244.28;5048018;28;20037;-75
2022/02/10 21:20:01;;;;;;;10.63;1.88;;;;;;;3.84;71.71;102239.13;5047724;28;20170;-76
2022/02/10 21:22:27;;;;;;;13.40;2.28;;;;;;;3.82;72.40;102243.63;5048512;28;20040;-77
2022/02/10 21:25:18;;;;;;;8.13;1.77;;;;;;;3.83;72.38;102242.69;5046452;28;20384;-76
2022/02/10 21:27:46;;;;;;;13.82;2.20;;;;;;;3.81;72.54;102231.34;5048308;28;20052;-76
2022/02/10 21:30:14;;;;;;;11.05;1.75;;;;;;;3.83;72.03;102241.81;5047203;28;20087;-76
2022/02/10 21:32:49;;;;;;;13.88;2.40;;;;;;;3.85;71.79;102250.50;5047220;28;20033;-78
2022/02/10 21:38:29;;;;;;;10.85;2.42;;;;;;;3.82;72.04;102251.50;5050353;28;20061;-78
2022/02/10 21:40:34;;;;;;;13.10;2.22;;;;;;;3.89;72.05;102242.44;5046516;28;20052;-77
2022/02/10 22:20:09;;;;;;;15.32;2.80;;;;;;;4.22;71.93;102263.06;5041415;28;20045;-77
2022/02/10 22:22:38;;;;;;;11.07;2.15;;;;;;;4.22;72.18;102264.84;5050677;28;20048;-76
2022/02/10 22:25:10;;;;;;;13.05;1.90;;;;;;;4.22;72.08;102257.81;5052953;28;20086;-76
2022/02/10 22:27:40;;;;;;;13.55;2.10;;;;;;;4.24;71.65;102250.69;5054070;28;20033;-77
2022/02/10 22:30:16;;;;;;;12.60;1.90;;;;;;;4.28;71.27;102258.47;5053513;28;20527;-76
2022/02/10 22:32:49;;;;;;;9.43;2.30;;;;;;;4.23;71.21;102267.41;5054181;28;20338;-78
2022/02/10 22:35:15;;;;;;;12.82;2.25;;;;;;;4.20;71.03;102264.91;5052111;28;20033;-76
2022/02/10 22:37:41;;;;;;;12.57;2.17;;;;;;;4.16;70.99;102254.56;5053932;28;20344;-75
2022/02/10 22:40:24;;;;;;;15.55;2.53;;;;;;;4.08;70.74;102249.59;5053041;28;20040;-77
2022/02/10 22:42:50;;;;;;;13.75;2.20;;;;;;;4.09;69.97;102258.34;5053927;28;20037;-76
2022/02/10 22:45:15;;;;;;;11.48;2.10;;;;;;;4.12;69.40;102260.84;5053205;28;20036;-78
2022/02/10 22:47:40;;;;;;;7.13;2.00;;;;;;;4.08;69.33;102249.59;5053638;28;20124;-77
2022/02/10 22:50:07;;;;;;;10.73;2.00;;;;;;;4.03;69.71;102257.69;5053676;28;20120;-76
2022/02/10 22:52:32;;;;;;;9.68;2.20;;;;;;;4.06;69.45;102256.69;5054220;28;20029;-77
2022/02/10 22:54:58;;;;;;;11.20;1.98;;;;;;;4.06;69.41;102259.31;5053352;28;20021;-77
2022/02/10 22:57:23;;;;;;;13.20;2.60;;;;;;;4.05;69.62;102258.47;5053569;28;20527;-78
2022/02/10 22:59:48;;;;;;;11.25;1.88;;;;;;;4.10;70.06;102266.19;5054304;28;20028;-76
2022/02/10 23:02:14;;;;;;;17.80;2.20;;;;;;;4.12;70.27;102268.75;5053611;28;20065;-76
2022/02/10 23:04:39;;;;;;;15.93;2.13;;;;;;;4.10;70.56;102278.50;5054008;28;20033;-77
2022/02/10 23:07:08;;;;;;;12.85;2.10;;;;;;;4.17;70.19;102294.00;5054005;28;20458;-77
2022/02/10 23:12:06;;;;;;;16.63;2.22;;;;;;;4.27;71.68;102280.44;5053899;28;20047;-77
2022/02/10 23:14:32;;;;;;;19.63;2.67;;;;;;;4.25;71.98;102269.97;5035689;28;20039;-77
2022/02/10 23:16:59;;;;;;;12.85;2.10;;;;;;;4.24;72.26;102266.50;5053844;28;20406;-77
2022/02/10 23:19:24;;;;;;;11.43;2.13;;;;;;;4.24;72.28;102258.59;5051945;28;20039;-77
2022/02/10 23:21:50;;;;;;;11.82;2.17;;;;;;;4.24;71.89;102265.66;5052340;28;20033;-77
2022/02/10 23:24:15;;;;;;;15.60;2.35;;;;;;;4.27;71.88;102267.28;5052013;28;20159;-77
2022/02/10 23:26:41;;;;;;;20.50;2.80;;;;;;;4.29;72.05;102262.81;5054042;28;20032;-76
2022/02/10 23:29:06;;;;;;;19.05;2.22;;;;;;;4.37;72.03;102265.97;5053896;28;20041;-77
2022/02/10 23:31:32;;;;;;;11.95;2.63;;;;;;;4.42;72.09;102258.75;5052846;28;20518;-77
2022/02/10 23:34:01;;;;;;;21.92;2.92;;;;;;;4.43;71.84;102257.81;5053482;28;20385;-77
2022/02/10 23:39:08;;;;;;;14.27;2.40;;;;;;;4.41;71.56;102272.84;5053347;28;20060;-76
2022/02/10 23:44:14;;;;;;;13.32;2.50;;;;;;;4.45;71.71;102279.72;5053241;28;20033;-77
2022/02/10 23:46:42;;;;;;;11.20;2.13;;;;;;;4.47;72.33;102283.13;5053513;28;20021;-77
2022/02/10 23:49:08;;;;;;;13.77;2.17;;;;;;;4.48;72.46;102290.13;5052942;28;20033;-77
2022/02/10 23:51:41;;;;;;;13.95;2.63;;;;;;;4.51;73.05;102281.22;5052762;28;20472;-77
2022/02/10 23:54:07;;;;;;;13.60;2.53;;;;;;;4.49;73.55;102283.91;5053389;28;20065;-77
2022/02/10 23:56:33;;;;;;;11.10;2.10;;;;;;;4.47;74.24;102291.03;5052335;28;20071;-77
2022/02/10 23:59:09;;;;;;;16.40;2.38;;;;;;;4.47;74.63;102292.81;5052965;28;20397;-77
